<?xml version="1.0" encoding="UTF-8" standalone="no" ?>
<gpx xmlns="http://www.topografix.com/GPX/1/1" xmlns:xsi="http://www.w3.org/2001/XMLSchema-instance" xsi:schemaLocation="http://www.topografix.com/GPX/1/1 http://www.topografix.com/GPX/1/1/gpx.xsd" version="1.1" creator="VisuGPX - https://www.visugpx.com">
  <metadata>
    <name>Esparron Quinson</name>
    <desc><![CDATA[Esparron Quinson]]></desc>
  </metadata>
  <trk>
    <name><![CDATA[Basses gorges du Verdon]]></name>
    <trkseg>
      <trkpt lat="43.69448" lon="6.03886">
        <ele>359</ele>
        <time>2015-11-11T11:54:02+01:00</time>
      </trkpt>
      <trkpt lat="43.69407" lon="6.03493">
        <ele>371</ele>
        <time>2015-11-11T11:54:07+01:00</time>
      </trkpt>
      <trkpt lat="43.69375" lon="6.03319">
        <ele>397</ele>
        <time>2015-11-11T11:54:12+01:00</time>
      </trkpt>
      <trkpt lat="43.69378" lon="6.03212">
        <ele>398</ele>
        <time>2015-11-11T11:54:17+01:00</time>
      </trkpt>
      <trkpt lat="43.69418" lon="6.03109">
        <ele>383</ele>
        <time>2015-11-11T11:54:22+01:00</time>
      </trkpt>
      <trkpt lat="43.69496" lon="6.03012">
        <ele>376</ele>
        <time>2015-11-11T11:54:27+01:00</time>
      </trkpt>
      <trkpt lat="43.69566" lon="6.02989">
        <ele>376</ele>
        <time>2015-11-11T11:54:32+01:00</time>
      </trkpt>
      <trkpt lat="43.6973" lon="6.0272">
        <ele>375</ele>
        <time>2015-11-11T11:54:37+01:00</time>
      </trkpt>
      <trkpt lat="43.69863" lon="6.02592">
        <ele>368</ele>
        <time>2015-11-11T11:54:42+01:00</time>
      </trkpt>
      <trkpt lat="43.69989" lon="6.02577">
        <ele>369</ele>
        <time>2015-11-11T11:54:47+01:00</time>
      </trkpt>
      <trkpt lat="43.70138" lon="6.02544">
        <ele>377</ele>
        <time>2015-11-11T11:54:52+01:00</time>
      </trkpt>
      <trkpt lat="43.70231" lon="6.02422">
        <ele>377</ele>
        <time>2015-11-11T11:54:57+01:00</time>
      </trkpt>
      <trkpt lat="43.70236" lon="6.02339">
        <ele>375</ele>
        <time>2015-11-11T11:55:02+01:00</time>
      </trkpt>
      <trkpt lat="43.70169" lon="6.02167">
        <ele>391</ele>
        <time>2015-11-11T11:55:07+01:00</time>
      </trkpt>
      <trkpt lat="43.70149" lon="6.02034">
        <ele>412</ele>
        <time>2015-11-11T11:55:12+01:00</time>
      </trkpt>
      <trkpt lat="43.70166" lon="6.01896">
        <ele>407</ele>
        <time>2015-11-11T11:55:17+01:00</time>
      </trkpt>
      <trkpt lat="43.70166" lon="6.01772">
        <ele>389</ele>
        <time>2015-11-11T11:55:22+01:00</time>
      </trkpt>
      <trkpt lat="43.70161" lon="6.01575">
        <ele>392</ele>
        <time>2015-11-11T11:55:27+01:00</time>
      </trkpt>
      <trkpt lat="43.70175" lon="6.01489">
        <ele>401</ele>
        <time>2015-11-11T11:55:32+01:00</time>
      </trkpt>
      <trkpt lat="43.70229" lon="6.0142">
        <ele>396</ele>
        <time>2015-11-11T11:55:37+01:00</time>
      </trkpt>
      <trkpt lat="43.70274" lon="6.0133">
        <ele>399</ele>
        <time>2015-11-11T11:55:42+01:00</time>
      </trkpt>
      <trkpt lat="43.70333" lon="6.01111">
        <ele>388</ele>
        <time>2015-11-11T11:55:47+01:00</time>
      </trkpt>
      <trkpt lat="43.70364" lon="6.00867">
        <ele>390</ele>
        <time>2015-11-11T11:55:52+01:00</time>
      </trkpt>
      <trkpt lat="43.70419" lon="6.00781">
        <ele>384</ele>
        <time>2015-11-11T11:55:57+01:00</time>
      </trkpt>
      <trkpt lat="43.70509" lon="6.00759">
        <ele>380</ele>
        <time>2015-11-11T11:56:02+01:00</time>
      </trkpt>
      <trkpt lat="43.70752" lon="6.00768">
        <ele>370</ele>
        <time>2015-11-11T11:56:07+01:00</time>
      </trkpt>
      <trkpt lat="43.70858" lon="6.00706">
        <ele>376</ele>
        <time>2015-11-11T11:56:12+01:00</time>
      </trkpt>
      <trkpt lat="43.70879" lon="6.00652">
        <ele>379</ele>
        <time>2015-11-11T11:56:17+01:00</time>
      </trkpt>
      <trkpt lat="43.70822" lon="6.00452">
        <ele>382</ele>
        <time>2015-11-11T11:56:22+01:00</time>
      </trkpt>
      <trkpt lat="43.70803" lon="6.00328">
        <ele>390</ele>
        <time>2015-11-11T11:56:27+01:00</time>
      </trkpt>
      <trkpt lat="43.70865" lon="6.00212">
        <ele>388</ele>
        <time>2015-11-11T11:56:32+01:00</time>
      </trkpt>
      <trkpt lat="43.71092" lon="5.99897">
        <ele>376</ele>
        <time>2015-11-11T11:56:37+01:00</time>
      </trkpt>
      <trkpt lat="43.7114" lon="5.99791">
        <ele>384</ele>
        <time>2015-11-11T11:56:42+01:00</time>
      </trkpt>
      <trkpt lat="43.71137" lon="5.99631">
        <ele>388</ele>
        <time>2015-11-11T11:56:47+01:00</time>
      </trkpt>
      <trkpt lat="43.71114" lon="5.99315">
        <ele>387</ele>
        <time>2015-11-11T11:56:52+01:00</time>
      </trkpt>
      <trkpt lat="43.71156" lon="5.99066">
        <ele>380</ele>
        <time>2015-11-11T11:56:57+01:00</time>
      </trkpt>
      <trkpt lat="43.71185" lon="5.98888">
        <ele>387</ele>
        <time>2015-11-11T11:57:02+01:00</time>
      </trkpt>
      <trkpt lat="43.71232" lon="5.98777">
        <ele>397</ele>
        <time>2015-11-11T11:57:07+01:00</time>
      </trkpt>
      <trkpt lat="43.7138" lon="5.98588">
        <ele>380</ele>
        <time>2015-11-11T11:57:12+01:00</time>
      </trkpt>
      <trkpt lat="43.71545" lon="5.98242">
        <ele>393</ele>
        <time>2015-11-11T11:57:17+01:00</time>
      </trkpt>
      <trkpt lat="43.7158" lon="5.98053">
        <ele>412</ele>
        <time>2015-11-11T11:57:22+01:00</time>
      </trkpt>
      <trkpt lat="43.7157" lon="5.97968">
        <ele>407</ele>
        <time>2015-11-11T11:57:27+01:00</time>
      </trkpt>
      <trkpt lat="43.71548" lon="5.97841">
        <ele>395</ele>
        <time>2015-11-11T11:57:32+01:00</time>
      </trkpt>
      <trkpt lat="43.71508" lon="5.97656">
        <ele>369</ele>
        <time>2015-11-11T11:57:37+01:00</time>
      </trkpt>
      <trkpt lat="43.71512" lon="5.975">
        <ele>367</ele>
        <time>2015-11-11T11:57:42+01:00</time>
      </trkpt>
      <trkpt lat="43.71518" lon="5.97412">
        <ele>365</ele>
        <time>2015-11-11T11:57:47+01:00</time>
      </trkpt>
      <trkpt lat="43.71705" lon="5.97272">
        <ele>374</ele>
        <time>2015-11-11T11:57:52+01:00</time>
      </trkpt>
      <trkpt lat="43.7174" lon="5.97184">
        <ele>367</ele>
        <time>2015-11-11T11:57:57+01:00</time>
      </trkpt>
      <trkpt lat="43.71853" lon="5.97071">
        <ele>372</ele>
        <time>2015-11-11T11:58:02+01:00</time>
      </trkpt>
      <trkpt lat="43.71919" lon="5.97008">
        <ele>366</ele>
        <time>2015-11-11T11:58:07+01:00</time>
      </trkpt>
      <trkpt lat="43.72022" lon="5.9695">
        <ele>377</ele>
        <time>2015-11-11T11:58:12+01:00</time>
      </trkpt>
      <trkpt lat="43.72089" lon="5.9671">
        <ele>375</ele>
        <time>2015-11-11T11:58:17+01:00</time>
      </trkpt>
      <trkpt lat="43.72192" lon="5.96605">
        <ele>385</ele>
        <time>2015-11-11T11:58:22+01:00</time>
      </trkpt>
      <trkpt lat="43.72317" lon="5.96569">
        <ele>379</ele>
        <time>2015-11-11T11:58:27+01:00</time>
      </trkpt>
      <trkpt lat="43.7279" lon="5.96526">
        <ele>362</ele>
        <time>2015-11-11T11:58:32+01:00</time>
      </trkpt>
      <trkpt lat="43.72998" lon="5.9653">
        <ele>364</ele>
        <time>2015-11-11T11:58:37+01:00</time>
      </trkpt>
      <trkpt lat="43.73252" lon="5.96616">
        <ele>366</ele>
        <time>2015-11-11T11:58:42+01:00</time>
      </trkpt>
      <trkpt lat="43.73479" lon="5.96702">
        <ele>362</ele>
        <time>2015-11-11T11:58:47+01:00</time>
      </trkpt>
      <trkpt lat="43.73568" lon="5.9692">
        <ele>363</ele>
        <time>2015-11-11T11:58:52+01:00</time>
      </trkpt>
      <trkpt lat="43.73627" lon="5.97053">
        <ele>364</ele>
        <time>2015-11-11T11:58:57+01:00</time>
      </trkpt>
      <trkpt lat="43.73691" lon="5.97139">
        <ele>366</ele>
        <time>2015-11-11T11:59:02+01:00</time>
      </trkpt>
    </trkseg>
  </trk>
</gpx>